sensor_id;sensor_type;location;lat;lon;timestamp;temperature;humidity
36416;DHT22;22447;44.530;18.620;2023-01-23T00:00:44;2.20;99.90
36416;DHT22;22447;44.530;18.620;2023-01-23T00:03:10;2.30;99.90
36416;DHT22;22447;44.530;18.620;2023-01-23T00:05:36;2.20;99.90
36416;DHT22;22447;44.530;18.620;2023-01-23T00:08:02;2.40;99.90
36416;DHT22;22447;44.530;18.620;2023-01-23T00:10:28;2.50;99.90
36416;DHT22;22447;44.530;18.620;2023-01-23T00:12:54;2.60;99.90
36416;DHT22;22447;44.530;18.620;2023-01-23T00:15:22;2.60;99.90
36416;DHT22;22447;44.530;18.620;2023-01-23T00:17:48;2.60;99.90
36416;DHT22;22447;44.530;18.620;2023-01-23T00:20:14;2.60;99.90
36416;DHT22;22447;44.530;18.620;2023-01-23T00:22:40;2.40;99.90
36416;DHT22;22447;44.530;18.620;2023-01-23T00:25:06;2.30;99.90
36416;DHT22;22447;44.530;18.620;2023-01-23T00:27:32;2.40;99.90
36416;DHT22;22447;44.530;18.620;2023-01-23T00:29:58;2.40;99.90
36416;DHT22;22447;44.530;18.620;2023-01-23T00:32:24;2.30;99.90
36416;DHT22;22447;44.530;18.620;2023-01-23T00:34:52;2.20;99.90
36416;DHT22;22447;44.530;18.620;2023-01-23T00:37:18;2.30;99.90
36416;DHT22;22447;44.530;18.620;2023-01-23T00:39:44;2.50;99.90
36416;DHT22;22447;44.530;18.620;2023-01-23T00:42:11;2.50;99.90
36416;DHT22;22447;44.530;18.620;2023-01-23T00:44:37;2.50;99.90
36416;DHT22;22447;44.530;18.620;2023-01-23T00:47:03;2.40;99.90
36416;DHT22;22447;44.530;18.620;2023-01-23T00:49:29;2.30;99.90
36416;DHT22;22447;44.530;18.620;2023-01-23T00:51:55;2.30;99.90
36416;DHT22;22447;44.530;18.620;2023-01-23T00:54:22;2.30;99.90
36416;DHT22;22447;44.530;18.620;2023-01-23T00:56:49;2.30;99.90
36416;DHT22;22447;44.530;18.620;2023-01-23T00:59:15;2.20;99.90
36416;DHT22;22447;44.530;18.620;2023-01-23T01:01:41;2.20;99.90
36416;DHT22;22447;44.530;18.620;2023-01-23T01:04:07;2.20;99.90
36416;DHT22;22447;44.530;18.620;2023-01-23T01:06:34;2.30;99.90
36416;DHT22;22447;44.530;18.620;2023-01-23T01:09:01;2.40;99.90
36416;DHT22;22447;44.530;18.620;2023-01-23T01:11:27;2.50;99.90
36416;DHT22;22447;44.530;18.620;2023-01-23T01:13:57;2.50;99.90
36416;DHT22;22447;44.530;18.620;2023-01-23T01:16:24;2.50;99.90
36416;DHT22;22447;44.530;18.620;2023-01-23T01:18:50;2.50;99.90
36416;DHT22;22447;44.530;18.620;2023-01-23T01:21:16;2.60;99.90
36416;DHT22;22447;44.530;18.620;2023-01-23T01:23:43;2.70;99.90
36416;DHT22;22447;44.530;18.620;2023-01-23T01:26:09;2.50;99.90
36416;DHT22;22447;44.530;18.620;2023-01-23T01:28:37;2.50;99.90
36416;DHT22;22447;44.530;18.620;2023-01-23T01:31:14;2.40;99.90
36416;DHT22;22447;44.530;18.620;2023-01-23T01:33:41;2.40;99.90
36416;DHT22;22447;44.530;18.620;2023-01-23T01:36:16;2.50;99.90
36416;DHT22;22447;44.530;18.620;2023-01-23T01:38:45;2.50;99.90
36416;DHT22;22447;44.530;18.620;2023-01-23T01:41:12;2.50;99.90
36416;DHT22;22447;44.530;18.620;2023-01-23T01:43:39;2.60;99.90
36416;DHT22;22447;44.530;18.620;2023-01-23T01:46:14;2.60;99.90
36416;DHT22;22447;44.530;18.620;2023-01-23T01:49:04;2.50;99.90
36416;DHT22;22447;44.530;18.620;2023-01-23T01:51:56;2.50;99.90
36416;DHT22;22447;44.530;18.620;2023-01-23T01:54:32;2.50;99.90
36416;DHT22;22447;44.530;18.620;2023-01-23T01:57:19;2.50;99.90
36416;DHT22;22447;44.530;18.620;2023-01-23T02:00:06;2.40;99.90
36416;DHT22;22447;44.530;18.620;2023-01-23T02:02:45;2.50;99.90
36416;DHT22;22447;44.530;18.620;2023-01-23T02:05:24;2.60;99.90
36416;DHT22;22447;44.530;18.620;2023-01-23T02:10:45;2.60;99.90
36416;DHT22;22447;44.530;18.620;2023-01-23T02:15:49;2.50;99.90
36416;DHT22;22447;44.530;18.620;2023-01-23T02:18:15;2.60;99.90
36416;DHT22;22447;44.530;18.620;2023-01-23T02:20:41;2.60;99.90
36416;DHT22;22447;44.530;18.620;2023-01-23T02:23:13;2.60;99.90
36416;DHT22;22447;44.530;18.620;2023-01-23T02:25:48;2.60;99.90
36416;DHT22;22447;44.530;18.620;2023-01-23T02:28:16;2.40;99.90
36416;DHT22;22447;44.530;18.620;2023-01-23T02:30:43;2.50;99.90
36416;DHT22;22447;44.530;18.620;2023-01-23T02:35:51;2.50;99.90
36416;DHT22;22447;44.530;18.620;2023-01-23T02:38:19;2.60;99.90
36416;DHT22;22447;44.530;18.620;2023-01-23T02:40:49;2.60;99.90
36416;DHT22;22447;44.530;18.620;2023-01-23T02:43:25;2.50;99.90
36416;DHT22;22447;44.530;18.620;2023-01-23T02:45:57;2.50;99.90
36416;DHT22;22447;44.530;18.620;2023-01-23T02:48:26;2.50;99.90
36416;DHT22;22447;44.530;18.620;2023-01-23T02:50:52;2.40;99.90
36416;DHT22;22447;44.530;18.620;2023-01-23T02:53:18;2.50;99.90
36416;DHT22;22447;44.530;18.620;2023-01-23T02:55:43;2.50;99.90
36416;DHT22;22447;44.530;18.620;2023-01-23T02:58:11;2.50;99.90
36416;DHT22;22447;44.530;18.620;2023-01-23T03:00:55;2.50;99.90
36416;DHT22;22447;44.530;18.620;2023-01-23T03:03:22;2.50;99.90
36416;DHT22;22447;44.530;18.620;2023-01-23T03:05:48;2.40;99.90
36416;DHT22;22447;44.530;18.620;2023-01-23T03:08:15;2.40;99.90
36416;DHT22;22447;44.530;18.620;2023-01-23T03:10:41;2.30;99.90
36416;DHT22;22447;44.530;18.620;2023-01-23T03:13:07;2.40;99.90
36416;DHT22;22447;44.530;18.620;2023-01-23T03:15:37;2.40;99.90
36416;DHT22;22447;44.530;18.620;2023-01-23T03:18:08;2.40;99.90
36416;DHT22;22447;44.530;18.620;2023-01-23T03:20:41;2.40;99.90
36416;DHT22;22447;44.530;18.620;2023-01-23T03:23:07;2.50;99.90
36416;DHT22;22447;44.530;18.620;2023-01-23T03:25:33;2.60;99.90
36416;DHT22;22447;44.530;18.620;2023-01-23T03:28:01;2.60;99.90
36416;DHT22;22447;44.530;18.620;2023-01-23T03:30:27;2.60;99.90
36416;DHT22;22447;44.530;18.620;2023-01-23T03:32:53;2.70;99.90
36416;DHT22;22447;44.530;18.620;2023-01-23T03:35:19;2.70;99.90
36416;DHT22;22447;44.530;18.620;2023-01-23T03:37:47;2.80;99.90
36416;DHT22;22447;44.530;18.620;2023-01-23T03:40:18;2.70;99.90
36416;DHT22;22447;44.530;18.620;2023-01-23T03:43:05;2.60;99.90
36416;DHT22;22447;44.530;18.620;2023-01-23T03:45:33;2.60;99.90
36416;DHT22;22447;44.530;18.620;2023-01-23T03:47:59;2.70;99.90
36416;DHT22;22447;44.530;18.620;2023-01-23T03:50:25;2.50;99.90
36416;DHT22;22447;44.530;18.620;2023-01-23T03:52:51;2.60;99.90
36416;DHT22;22447;44.530;18.620;2023-01-23T03:55:17;2.70;99.90
36416;DHT22;22447;44.530;18.620;2023-01-23T03:57:45;2.50;99.90
36416;DHT22;22447;44.530;18.620;2023-01-23T04:00:22;2.40;99.90
36416;DHT22;22447;44.530;18.620;2023-01-23T04:02:59;2.50;99.90
36416;DHT22;22447;44.530;18.620;2023-01-23T04:05:25;2.40;99.90
36416;DHT22;22447;44.530;18.620;2023-01-23T04:07:50;2.40;99.90
36416;DHT22;22447;44.530;18.620;2023-01-23T04:10:17;2.40;99.90
36416;DHT22;22447;44.530;18.620;2023-01-23T04:12:48;2.50;99.90
36416;DHT22;22447;44.530;18.620;2023-01-23T04:15:14;2.50;99.90
36416;DHT22;22447;44.530;18.620;2023-01-23T04:17:40;2.50;99.90
36416;DHT22;22447;44.530;18.620;2023-01-23T04:20:07;2.50;99.90
36416;DHT22;22447;44.530;18.620;2023-01-23T04:22:33;2.50;99.90
36416;DHT22;22447;44.530;18.620;2023-01-23T04:24:59;2.60;99.90
36416;DHT22;22447;44.530;18.620;2023-01-23T04:27:26;2.60;99.90
36416;DHT22;22447;44.530;18.620;2023-01-23T04:29:54;2.60;99.90
36416;DHT22;22447;44.530;18.620;2023-01-23T04:32:20;2.40;99.90
36416;DHT22;22447;44.530;18.620;2023-01-23T04:34:46;2.30;99.90
36416;DHT22;22447;44.530;18.620;2023-01-23T04:37:13;2.30;99.90
36416;DHT22;22447;44.530;18.620;2023-01-23T04:39:40;2.30;99.90
36416;DHT22;22447;44.530;18.620;2023-01-23T04:42:06;2.40;99.90
36416;DHT22;22447;44.530;18.620;2023-01-23T04:44:58;2.50;99.90
36416;DHT22;22447;44.530;18.620;2023-01-23T04:47:42;2.60;99.90
36416;DHT22;22447;44.530;18.620;2023-01-23T04:50:12;2.50;99.90
36416;DHT22;22447;44.530;18.620;2023-01-23T04:52:42;2.50;99.90
36416;DHT22;22447;44.530;18.620;2023-01-23T04:55:08;2.50;99.90
36416;DHT22;22447;44.530;18.620;2023-01-23T04:57:35;2.60;99.90
36416;DHT22;22447;44.530;18.620;2023-01-23T05:00:33;2.60;99.90
36416;DHT22;22447;44.530;18.620;2023-01-23T05:03:01;2.50;99.90
36416;DHT22;22447;44.530;18.620;2023-01-23T05:05:29;2.50;99.90
36416;DHT22;22447;44.530;18.620;2023-01-23T05:07:59;2.50;99.90
36416;DHT22;22447;44.530;18.620;2023-01-23T05:10:25;2.40;99.90
36416;DHT22;22447;44.530;18.620;2023-01-23T05:12:51;2.40;99.90
36416;DHT22;22447;44.530;18.620;2023-01-23T05:15:19;2.30;99.90
36416;DHT22;22447;44.530;18.620;2023-01-23T05:17:47;2.40;99.90
36416;DHT22;22447;44.530;18.620;2023-01-23T05:20:13;2.40;99.90
36416;DHT22;22447;44.530;18.620;2023-01-23T05:22:39;2.30;99.90
36416;DHT22;22447;44.530;18.620;2023-01-23T05:25:22;2.30;99.90
36416;DHT22;22447;44.530;18.620;2023-01-23T05:27:48;2.40;99.90
36416;DHT22;22447;44.530;18.620;2023-01-23T05:30:15;2.40;99.90
36416;DHT22;22447;44.530;18.620;2023-01-23T05:32:44;2.50;99.90
36416;DHT22;22447;44.530;18.620;2023-01-23T05:35:17;2.60;99.90
36416;DHT22;22447;44.530;18.620;2023-01-23T05:37:46;2.60;99.90
36416;DHT22;22447;44.530;18.620;2023-01-23T05:40:13;2.60;99.90
36416;DHT22;22447;44.530;18.620;2023-01-23T05:43:18;2.60;99.90
36416;DHT22;22447;44.530;18.620;2023-01-23T05:45:44;2.50;99.90
36416;DHT22;22447;44.530;18.620;2023-01-23T05:48:20;2.50;99.90
36416;DHT22;22447;44.530;18.620;2023-01-23T05:50:46;2.50;99.90
36416;DHT22;22447;44.530;18.620;2023-01-23T05:53:12;2.50;99.90
36416;DHT22;22447;44.530;18.620;2023-01-23T05:55:40;2.50;99.90
36416;DHT22;22447;44.530;18.620;2023-01-23T05:58:07;2.50;99.90
36416;DHT22;22447;44.530;18.620;2023-01-23T06:00:48;2.60;99.90
36416;DHT22;22447;44.530;18.620;2023-01-23T06:03:44;2.60;99.90
36416;DHT22;22447;44.530;18.620;2023-01-23T06:06:34;2.60;99.90
36416;DHT22;22447;44.530;18.620;2023-01-23T06:09:00;2.60;99.90
36416;DHT22;22447;44.530;18.620;2023-01-23T06:11:26;2.50;99.90
36416;DHT22;22447;44.530;18.620;2023-01-23T06:13:52;2.50;99.90
36416;DHT22;22447;44.530;18.620;2023-01-23T06:16:18;2.60;99.90
36416;DHT22;22447;44.530;18.620;2023-01-23T06:18:45;2.70;99.90
36416;DHT22;22447;44.530;18.620;2023-01-23T06:21:12;2.60;99.90
36416;DHT22;22447;44.530;18.620;2023-01-23T06:23:40;2.60;99.90
36416;DHT22;22447;44.530;18.620;2023-01-23T06:26:08;2.60;99.90
36416;DHT22;22447;44.530;18.620;2023-01-23T06:28:35;2.60;99.90
36416;DHT22;22447;44.530;18.620;2023-01-23T06:31:03;2.70;99.90
36416;DHT22;22447;44.530;18.620;2023-01-23T06:33:41;2.70;99.90
36416;DHT22;22447;44.530;18.620;2023-01-23T06:36:10;2.60;99.90
36416;DHT22;22447;44.530;18.620;2023-01-23T06:38:37;2.70;99.90
36416;DHT22;22447;44.530;18.620;2023-01-23T06:41:07;2.70;99.90
36416;DHT22;22447;44.530;18.620;2023-01-23T06:43:36;2.70;99.90
36416;DHT22;22447;44.530;18.620;2023-01-23T06:46:03;2.80;99.90
36416;DHT22;22447;44.530;18.620;2023-01-23T06:48:29;2.80;99.90
36416;DHT22;22447;44.530;18.620;2023-01-23T06:50:59;2.80;99.90
36416;DHT22;22447;44.530;18.620;2023-01-23T06:53:25;2.70;99.90
36416;DHT22;22447;44.530;18.620;2023-01-23T06:55:52;2.80;99.90
36416;DHT22;22447;44.530;18.620;2023-01-23T06:58:21;2.80;99.90
36416;DHT22;22447;44.530;18.620;2023-01-23T07:00:48;2.80;99.90
36416;DHT22;22447;44.530;18.620;2023-01-23T07:03:34;2.80;99.90
36416;DHT22;22447;44.530;18.620;2023-01-23T07:06:03;2.80;99.90
36416;DHT22;22447;44.530;18.620;2023-01-23T07:08:33;2.80;99.90
36416;DHT22;22447;44.530;18.620;2023-01-23T07:11:00;2.80;99.90
36416;DHT22;22447;44.530;18.620;2023-01-23T07:13:27;2.90;99.90
36416;DHT22;22447;44.530;18.620;2023-01-23T07:15:53;2.90;99.90
36416;DHT22;22447;44.530;18.620;2023-01-23T07:18:22;2.90;99.90
36416;DHT22;22447;44.530;18.620;2023-01-23T07:20:48;2.80;99.90
36416;DHT22;22447;44.530;18.620;2023-01-23T07:23:17;2.90;99.90
36416;DHT22;22447;44.530;18.620;2023-01-23T07:25:43;2.90;99.90
36416;DHT22;22447;44.530;18.620;2023-01-23T07:28:09;2.90;99.90
36416;DHT22;22447;44.530;18.620;2023-01-23T07:30:35;2.80;99.90
36416;DHT22;22447;44.530;18.620;2023-01-23T07:33:01;2.80;99.90
36416;DHT22;22447;44.530;18.620;2023-01-23T07:35:27;2.70;99.90
36416;DHT22;22447;44.530;18.620;2023-01-23T07:37:53;2.80;99.90
36416;DHT22;22447;44.530;18.620;2023-01-23T07:40:19;2.80;99.90
36416;DHT22;22447;44.530;18.620;2023-01-23T07:42:45;2.80;99.90
36416;DHT22;22447;44.530;18.620;2023-01-23T07:45:12;2.90;99.90
36416;DHT22;22447;44.530;18.620;2023-01-23T07:47:39;2.90;99.90
36416;DHT22;22447;44.530;18.620;2023-01-23T07:50:12;3.00;99.90
36416;DHT22;22447;44.530;18.620;2023-01-23T07:52:38;2.90;99.90
36416;DHT22;22447;44.530;18.620;2023-01-23T07:55:05;3.00;99.90
36416;DHT22;22447;44.530;18.620;2023-01-23T07:57:31;3.00;99.90
36416;DHT22;22447;44.530;18.620;2023-01-23T08:00:01;3.10;99.90
36416;DHT22;22447;44.530;18.620;2023-01-23T08:02:27;3.20;99.90
36416;DHT22;22447;44.530;18.620;2023-01-23T08:04:53;3.10;99.90
36416;DHT22;22447;44.530;18.620;2023-01-23T08:07:19;3.20;99.90
36416;DHT22;22447;44.530;18.620;2023-01-23T08:09:48;3.20;99.90
36416;DHT22;22447;44.530;18.620;2023-01-23T08:12:14;3.30;99.90
36416;DHT22;22447;44.530;18.620;2023-01-23T08:14:40;3.30;99.90
36416;DHT22;22447;44.530;18.620;2023-01-23T08:17:06;3.40;99.90
36416;DHT22;22447;44.530;18.620;2023-01-23T08:19:32;3.40;99.90
36416;DHT22;22447;44.530;18.620;2023-01-23T08:21:59;3.50;99.90
36416;DHT22;22447;44.530;18.620;2023-01-23T08:24:25;3.40;99.90
36416;DHT22;22447;44.530;18.620;2023-01-23T08:26:51;3.40;99.90
36416;DHT22;22447;44.530;18.620;2023-01-23T08:29:17;3.40;99.90
36416;DHT22;22447;44.530;18.620;2023-01-23T08:31:43;3.40;99.90
36416;DHT22;22447;44.530;18.620;2023-01-23T08:34:09;3.40;99.90
36416;DHT22;22447;44.530;18.620;2023-01-23T08:36:35;3.40;99.90
36416;DHT22;22447;44.530;18.620;2023-01-23T08:39:01;3.50;99.90
36416;DHT22;22447;44.530;18.620;2023-01-23T08:41:27;3.50;99.90
36416;DHT22;22447;44.530;18.620;2023-01-23T08:43:53;3.50;99.90
36416;DHT22;22447;44.530;18.620;2023-01-23T08:46:19;3.60;99.90
36416;DHT22;22447;44.530;18.620;2023-01-23T08:48:45;3.60;99.90
36416;DHT22;22447;44.530;18.620;2023-01-23T08:51:12;3.60;99.90
36416;DHT22;22447;44.530;18.620;2023-01-23T08:53:38;3.60;99.90
36416;DHT22;22447;44.530;18.620;2023-01-23T08:56:12;3.50;99.90
36416;DHT22;22447;44.530;18.620;2023-01-23T08:58:38;3.30;99.90
36416;DHT22;22447;44.530;18.620;2023-01-23T09:01:04;3.40;99.90
36416;DHT22;22447;44.530;18.620;2023-01-23T09:03:35;3.50;99.90
36416;DHT22;22447;44.530;18.620;2023-01-23T09:06:01;3.50;99.90
36416;DHT22;22447;44.530;18.620;2023-01-23T09:08:27;3.50;99.90
36416;DHT22;22447;44.530;18.620;2023-01-23T09:10:53;3.50;99.90
36416;DHT22;22447;44.530;18.620;2023-01-23T09:13:18;3.50;99.90
36416;DHT22;22447;44.530;18.620;2023-01-23T09:15:45;3.50;99.90
36416;DHT22;22447;44.530;18.620;2023-01-23T09:18:11;3.50;99.90
36416;DHT22;22447;44.530;18.620;2023-01-23T09:20:37;3.40;99.90
36416;DHT22;22447;44.530;18.620;2023-01-23T09:23:03;3.50;99.90
36416;DHT22;22447;44.530;18.620;2023-01-23T09:25:29;3.50;99.90
36416;DHT22;22447;44.530;18.620;2023-01-23T09:27:56;3.50;99.90
36416;DHT22;22447;44.530;18.620;2023-01-23T09:30:22;3.60;99.90
36416;DHT22;22447;44.530;18.620;2023-01-23T09:32:48;3.60;99.90
36416;DHT22;22447;44.530;18.620;2023-01-23T09:35:17;3.60;99.90
36416;DHT22;22447;44.530;18.620;2023-01-23T09:37:43;3.70;99.90
36416;DHT22;22447;44.530;18.620;2023-01-23T09:40:36;3.70;99.90
36416;DHT22;22447;44.530;18.620;2023-01-23T09:43:14;3.90;99.90
36416;DHT22;22447;44.530;18.620;2023-01-23T09:45:45;4.20;99.90
36416;DHT22;22447;44.530;18.620;2023-01-23T09:48:17;4.20;99.90
36416;DHT22;22447;44.530;18.620;2023-01-23T09:50:57;4.40;99.90
36416;DHT22;22447;44.530;18.620;2023-01-23T09:53:34;4.50;99.90
36416;DHT22;22447;44.530;18.620;2023-01-23T09:58:59;4.60;99.90
36416;DHT22;22447;44.530;18.620;2023-01-23T10:01:27;4.70;99.90
36416;DHT22;22447;44.530;18.620;2023-01-23T10:03:59;4.60;99.90
36416;DHT22;22447;44.530;18.620;2023-01-23T10:06:32;4.60;99.90
36416;DHT22;22447;44.530;18.620;2023-01-23T10:15:19;4.70;99.90
36416;DHT22;22447;44.530;18.620;2023-01-23T10:18:02;4.70;99.90
36416;DHT22;22447;44.530;18.620;2023-01-23T10:26:02;4.60;99.90
36416;DHT22;22447;44.530;18.620;2023-01-23T10:28:33;4.50;99.90
36416;DHT22;22447;44.530;18.620;2023-01-23T10:31:02;4.70;99.90
36416;DHT22;22447;44.530;18.620;2023-01-23T10:33:37;4.80;99.90
36416;DHT22;22447;44.530;18.620;2023-01-23T10:39:02;5.10;99.90
36416;DHT22;22447;44.530;18.620;2023-01-23T10:41:28;5.20;99.90
36416;DHT22;22447;44.530;18.620;2023-01-23T10:43:55;5.30;99.90
36416;DHT22;22447;44.530;18.620;2023-01-23T10:46:33;5.30;99.90
36416;DHT22;22447;44.530;18.620;2023-01-23T10:49:02;5.40;99.90
36416;DHT22;22447;44.530;18.620;2023-01-23T10:51:42;5.50;99.90
36416;DHT22;22447;44.530;18.620;2023-01-23T10:54:18;5.50;99.90
36416;DHT22;22447;44.530;18.620;2023-01-23T10:56:59;5.60;99.90
36416;DHT22;22447;44.530;18.620;2023-01-23T10:59:56;5.60;99.90
36416;DHT22;22447;44.530;18.620;2023-01-23T11:02:40;5.70;99.90
36416;DHT22;22447;44.530;18.620;2023-01-23T11:05:42;5.60;99.90
36416;DHT22;22447;44.530;18.620;2023-01-23T11:08:31;5.60;99.90
36416;DHT22;22447;44.530;18.620;2023-01-23T11:11:26;5.70;99.90
36416;DHT22;22447;44.530;18.620;2023-01-23T11:16:34;5.80;99.90
36416;DHT22;22447;44.530;18.620;2023-01-23T11:21:34;5.70;99.90
36416;DHT22;22447;44.530;18.620;2023-01-23T11:26:37;5.70;99.90
36416;DHT22;22447;44.530;18.620;2023-01-23T11:29:19;5.70;99.90
36416;DHT22;22447;44.530;18.620;2023-01-23T11:31:46;5.70;99.90
36416;DHT22;22447;44.530;18.620;2023-01-23T11:34:15;5.70;99.90
36416;DHT22;22447;44.530;18.620;2023-01-23T11:37:05;5.60;99.90
36416;DHT22;22447;44.530;18.620;2023-01-23T11:39:39;5.60;99.90
36416;DHT22;22447;44.530;18.620;2023-01-23T11:42:10;5.70;99.90
36416;DHT22;22447;44.530;18.620;2023-01-23T11:44:37;5.80;99.90
36416;DHT22;22447;44.530;18.620;2023-01-23T11:50:33;5.70;99.90
36416;DHT22;22447;44.530;18.620;2023-01-23T11:58:42;5.80;99.90
36416;DHT22;22447;44.530;18.620;2023-01-23T12:07:12;6.00;99.90
36416;DHT22;22447;44.530;18.620;2023-01-23T12:09:46;5.80;99.90
36416;DHT22;22447;44.530;18.620;2023-01-23T12:12:38;5.90;99.90
36416;DHT22;22447;44.530;18.620;2023-01-23T12:15:23;5.90;99.90
36416;DHT22;22447;44.530;18.620;2023-01-23T12:18:22;5.90;99.90
36416;DHT22;22447;44.530;18.620;2023-01-23T12:40:46;5.70;99.90
36416;DHT22;22447;44.530;18.620;2023-01-23T12:43:38;5.70;99.90
36416;DHT22;22447;44.530;18.620;2023-01-23T12:46:14;5.80;99.90
36416;DHT22;22447;44.530;18.620;2023-01-23T12:49:18;5.90;99.90
36416;DHT22;22447;44.530;18.620;2023-01-23T12:51:51;5.80;99.90
36416;DHT22;22447;44.530;18.620;2023-01-23T12:54:30;5.80;99.90
36416;DHT22;22447;44.530;18.620;2023-01-23T12:56:58;5.80;99.90
36416;DHT22;22447;44.530;18.620;2023-01-23T12:59:40;5.80;99.90
36416;DHT22;22447;44.530;18.620;2023-01-23T13:10:28;5.90;99.90
36416;DHT22;22447;44.530;18.620;2023-01-23T13:13:17;6.00;99.90
36416;DHT22;22447;44.530;18.620;2023-01-23T13:18:38;5.90;99.90
36416;DHT22;22447;44.530;18.620;2023-01-23T13:21:23;5.90;99.90
36416;DHT22;22447;44.530;18.620;2023-01-23T13:27:49;5.90;99.90
36416;DHT22;22447;44.530;18.620;2023-01-23T13:32:53;5.80;99.90
36416;DHT22;22447;44.530;18.620;2023-01-23T13:52:09;5.70;99.90
36416;DHT22;22447;44.530;18.620;2023-01-23T13:54:57;5.90;99.90
36416;DHT22;22447;44.530;18.620;2023-01-23T13:57:45;5.90;99.90
36416;DHT22;22447;44.530;18.620;2023-01-23T14:00:20;6.00;99.90
36416;DHT22;22447;44.530;18.620;2023-01-23T14:05:40;6.00;99.90
36416;DHT22;22447;44.530;18.620;2023-01-23T14:08:17;6.00;99.90
36416;DHT22;22447;44.530;18.620;2023-01-23T14:10:46;5.90;99.90
36416;DHT22;22447;44.530;18.620;2023-01-23T14:13:18;5.90;99.90
36416;DHT22;22447;44.530;18.620;2023-01-23T14:15:49;6.00;99.90
36416;DHT22;22447;44.530;18.620;2023-01-23T14:18:35;6.00;99.90
36416;DHT22;22447;44.530;18.620;2023-01-23T14:21:21;6.00;99.90
36416;DHT22;22447;44.530;18.620;2023-01-23T14:23:52;6.00;99.90
36416;DHT22;22447;44.530;18.620;2023-01-23T14:26:26;6.10;99.90
36416;DHT22;22447;44.530;18.620;2023-01-23T14:28:59;6.10;99.90
36416;DHT22;22447;44.530;18.620;2023-01-23T14:31:28;6.00;99.90
36416;DHT22;22447;44.530;18.620;2023-01-23T14:33:59;6.00;99.90
36416;DHT22;22447;44.530;18.620;2023-01-23T14:36:26;5.90;99.90
36416;DHT22;22447;44.530;18.620;2023-01-23T14:38:54;5.90;99.90
36416;DHT22;22447;44.530;18.620;2023-01-23T14:41:25;5.90;99.90
36416;DHT22;22447;44.530;18.620;2023-01-23T14:43:54;5.90;99.90
36416;DHT22;22447;44.530;18.620;2023-01-23T14:49:00;5.80;99.90
36416;DHT22;22447;44.530;18.620;2023-01-23T14:51:27;5.70;99.90
36416;DHT22;22447;44.530;18.620;2023-01-23T14:56:42;5.70;99.90
36416;DHT22;22447;44.530;18.620;2023-01-23T14:59:34;5.60;99.90
36416;DHT22;22447;44.530;18.620;2023-01-23T15:02:18;5.60;99.90
36416;DHT22;22447;44.530;18.620;2023-01-23T15:05:06;5.50;99.90
36416;DHT22;22447;44.530;18.620;2023-01-23T15:07:34;5.60;99.90
36416;DHT22;22447;44.530;18.620;2023-01-23T15:10:00;5.70;99.90
36416;DHT22;22447;44.530;18.620;2023-01-23T15:12:26;5.60;99.90
36416;DHT22;22447;44.530;18.620;2023-01-23T15:14:54;5.50;99.90
36416;DHT22;22447;44.530;18.620;2023-01-23T15:17:21;5.50;99.90
36416;DHT22;22447;44.530;18.620;2023-01-23T15:19:51;5.50;99.90
36416;DHT22;22447;44.530;18.620;2023-01-23T15:22:25;5.40;99.90
36416;DHT22;22447;44.530;18.620;2023-01-23T15:24:51;5.40;99.90
36416;DHT22;22447;44.530;18.620;2023-01-23T15:27:35;5.40;99.90
36416;DHT22;22447;44.530;18.620;2023-01-23T15:30:30;5.40;99.90
36416;DHT22;22447;44.530;18.620;2023-01-23T15:33:03;5.40;99.90
36416;DHT22;22447;44.530;18.620;2023-01-23T15:35:34;5.30;99.90
36416;DHT22;22447;44.530;18.620;2023-01-23T15:38:00;5.20;99.90
36416;DHT22;22447;44.530;18.620;2023-01-23T15:40:33;5.30;99.90
36416;DHT22;22447;44.530;18.620;2023-01-23T15:43:04;5.20;99.90
36416;DHT22;22447;44.530;18.620;2023-01-23T15:45:33;5.20;99.90
36416;DHT22;22447;44.530;18.620;2023-01-23T15:47:59;5.30;99.90
36416;DHT22;22447;44.530;18.620;2023-01-23T15:50:26;5.40;99.90
36416;DHT22;22447;44.530;18.620;2023-01-23T15:52:53;5.40;99.90
36416;DHT22;22447;44.530;18.620;2023-01-23T15:55:21;5.40;99.90
36416;DHT22;22447;44.530;18.620;2023-01-23T15:57:48;5.40;99.90
36416;DHT22;22447;44.530;18.620;2023-01-23T16:02:43;5.20;99.90
36416;DHT22;22447;44.530;18.620;2023-01-23T16:05:10;5.10;99.90
36416;DHT22;22447;44.530;18.620;2023-01-23T16:07:40;5.10;99.90
36416;DHT22;22447;44.530;18.620;2023-01-23T16:10:25;5.10;99.90
36416;DHT22;22447;44.530;18.620;2023-01-23T16:12:53;5.10;99.90
36416;DHT22;22447;44.530;18.620;2023-01-23T16:15:21;5.10;99.90
36416;DHT22;22447;44.530;18.620;2023-01-23T16:17:48;5.10;99.90
36416;DHT22;22447;44.530;18.620;2023-01-23T16:20:20;5.10;99.90
36416;DHT22;22447;44.530;18.620;2023-01-23T16:22:53;5.00;99.90
36416;DHT22;22447;44.530;18.620;2023-01-23T16:25:32;5.00;99.90
36416;DHT22;22447;44.530;18.620;2023-01-23T16:27:58;5.20;99.90
36416;DHT22;22447;44.530;18.620;2023-01-23T16:30:25;5.20;99.90
36416;DHT22;22447;44.530;18.620;2023-01-23T16:32:53;5.20;99.90
36416;DHT22;22447;44.530;18.620;2023-01-23T16:35:21;5.20;99.90
36416;DHT22;22447;44.530;18.620;2023-01-23T16:37:50;5.10;99.90
36416;DHT22;22447;44.530;18.620;2023-01-23T16:40:25;5.00;99.90
36416;DHT22;22447;44.530;18.620;2023-01-23T16:42:52;5.00;99.90
36416;DHT22;22447;44.530;18.620;2023-01-23T16:45:22;5.00;99.90
36416;DHT22;22447;44.530;18.620;2023-01-23T16:47:49;5.00;99.90
36416;DHT22;22447;44.530;18.620;2023-01-23T16:50:17;4.90;99.90
36416;DHT22;22447;44.530;18.620;2023-01-23T16:52:54;4.90;99.90
36416;DHT22;22447;44.530;18.620;2023-01-23T16:55:29;4.80;99.90
36416;DHT22;22447;44.530;18.620;2023-01-23T16:57:56;4.70;99.90
36416;DHT22;22447;44.530;18.620;2023-01-23T17:00:27;4.70;99.90
36416;DHT22;22447;44.530;18.620;2023-01-23T17:02:57;4.70;99.90
36416;DHT22;22447;44.530;18.620;2023-01-23T17:05:27;4.70;99.90
36416;DHT22;22447;44.530;18.620;2023-01-23T17:07:53;4.70;99.90
36416;DHT22;22447;44.530;18.620;2023-01-23T17:10:21;4.70;99.90
36416;DHT22;22447;44.530;18.620;2023-01-23T17:12:50;4.90;99.90
36416;DHT22;22447;44.530;18.620;2023-01-23T17:15:27;4.90;99.90
36416;DHT22;22447;44.530;18.620;2023-01-23T17:17:56;4.90;99.90
36416;DHT22;22447;44.530;18.620;2023-01-23T17:20:24;5.00;99.90
36416;DHT22;22447;44.530;18.620;2023-01-23T17:22:50;5.00;99.90
36416;DHT22;22447;44.530;18.620;2023-01-23T17:25:18;5.00;99.90
36416;DHT22;22447;44.530;18.620;2023-01-23T17:27:45;4.80;99.90
36416;DHT22;22447;44.530;18.620;2023-01-23T17:30:21;4.80;99.90
36416;DHT22;22447;44.530;18.620;2023-01-23T17:32:53;4.90;99.90
36416;DHT22;22447;44.530;18.620;2023-01-23T17:35:32;4.90;99.90
36416;DHT22;22447;44.530;18.620;2023-01-23T17:37:59;5.00;99.90
36416;DHT22;22447;44.530;18.620;2023-01-23T17:40:25;5.00;99.90
36416;DHT22;22447;44.530;18.620;2023-01-23T17:42:53;5.00;99.90
36416;DHT22;22447;44.530;18.620;2023-01-23T17:45:21;5.00;99.90